Time;durP1;ratioP1;P1;durP2;ratioP2;P2;SDS_P1;SDS_P2;PMS_P1;PMS_P2;Temp;Humidity;BMP_temperature;BMP_pressure;BME280_temperature;BME280_humidity;BME280_pressure;Samples;Min_cycle;Max_cycle;Signal;HPM_P1;HPM_P2
2022/10/05 00:02:14;;;;;;;8.77;5.20;;;;;;;14.89;61.00;99294.41;7004369;28;20205;-80
2022/10/05 00:05:36;;;;;;;5.97;4.80;;;;;;;14.92;60.80;99297.50;7004391;28;20315;-80
2022/10/05 00:08:57;;;;;;;9.97;5.33;;;;;;;14.98;60.25;99290.38;7003859;28;20233;-80
2022/10/05 00:12:22;;;;;;;6.43;4.97;;;;;;;14.19;60.50;99191.56;7004351;28;20214;-80
2022/10/05 00:15:43;;;;;;;5.03;4.57;;;;;;;14.58;60.58;99295.22;7003964;28;20292;-80
2022/10/05 00:19:13;;;;;;;5.13;4.70;;;;;;;14.52;60.47;99308.88;7003944;28;20315;-80
2022/10/05 00:22:34;;;;;;;6.00;5.30;;;;;;;14.65;60.39;99306.06;7004322;28;20309;-82
2022/10/05 00:25:57;;;;;;;6.30;5.03;;;;;;;14.12;60.95;99308.22;6998044;28;20230;-80
2022/10/05 00:29:21;;;;;;;5.77;5.17;;;;;;;13.59;62.92;99308.59;7003536;28;20255;-80
2022/10/05 00:32:43;;;;;;;6.90;4.87;;;;;;;14.15;62.01;99307.75;7004815;28;20253;-80
2022/10/05 00:36:06;;;;;;;9.03;5.10;;;;;;;13.85;62.18;99300.38;7004990;28;20343;-80
2022/10/05 00:39:28;;;;;;;7.70;4.70;;;;;;;14.24;61.20;99282.09;7004172;28;20307;-80
2022/10/05 00:42:57;;;;;;;7.40;5.30;;;;;;;14.12;61.33;99291.09;7004752;28;20682;-80
2022/10/05 00:46:23;;;;;;;6.40;4.90;;;;;;;14.12;61.21;99267.53;7004773;28;20292;-80
2022/10/05 00:50:08;;;;;;;6.03;5.43;;;;;;;13.64;62.89;99289.81;7007170;28;20308;-80
2022/10/05 00:53:41;;;;;;;6.93;5.57;;;;;;;14.14;61.83;99260.00;7008425;28;20274;-80
2022/10/05 00:57:14;;;;;;;11.13;5.60;;;;;;;14.40;61.82;99295.13;7003841;28;20626;-81
2022/10/05 01:00:41;;;;;;;5.73;5.30;;;;;;;14.52;61.56;99290.69;7002121;28;20725;-80
2022/10/05 01:04:12;;;;;;;8.80;5.53;;;;;;;14.55;61.47;99290.25;7001988;28;20318;-80
2022/10/05 01:07:39;;;;;;;7.97;5.23;;;;;;;14.37;62.30;99281.19;7002029;28;20214;-80
2022/10/05 01:11:07;;;;;;;5.90;5.40;;;;;;;14.60;62.15;99284.16;7002550;28;20332;-80
2022/10/05 01:14:34;;;;;;;7.67;6.00;;;;;;;14.61;61.42;99283.13;7002810;28;20696;-80
2022/10/05 01:18:02;;;;;;;6.87;5.03;;;;;;;14.04;61.22;99234.41;7001197;28;20283;-80
2022/10/05 01:21:27;;;;;;;7.53;5.47;;;;;;;13.94;62.92;99290.97;7003555;28;20198;-80
2022/10/05 01:24:57;;;;;;;6.47;5.47;;;;;;;13.88;64.22;99289.13;7003709;28;20293;-80
2022/10/05 01:28:24;;;;;;;7.10;5.73;;;;;;;14.12;62.88;99277.53;7002223;28;20253;-80
2022/10/05 01:31:50;;;;;;;8.90;5.53;;;;;;;14.11;62.52;99254.19;7003354;28;20247;-80
2022/10/05 01:35:21;;;;;;;7.47;5.80;;;;;;;14.24;61.78;99265.00;7002762;28;20339;-80
2022/10/05 01:38:47;;;;;;;8.23;5.80;;;;;;;14.20;62.02;99250.19;7001607;28;20229;-80
2022/10/05 01:42:14;;;;;;;11.83;6.17;;;;;;;14.06;62.13;99264.84;7002414;28;20284;-80
2022/10/05 01:45:44;;;;;;;6.97;5.20;;;;;;;14.25;61.52;99256.66;7001994;28;20205;-80
2022/10/05 01:49:21;;;;;;;8.20;5.90;;;;;;;14.27;61.31;99276.22;7001579;28;20308;-79
2022/10/05 01:52:49;;;;;;;7.33;6.20;;;;;;;13.55;63.57;99270.25;7007279;28;20346;-80
2022/10/05 01:56:18;;;;;;;7.30;5.60;;;;;;;14.40;62.22;99275.34;7006346;28;20764;-80
2022/10/05 01:59:51;;;;;;;6.00;5.40;;;;;;;14.31;61.75;99269.34;7006736;28;20217;-80
2022/10/05 02:03:18;;;;;;;5.83;5.33;;;;;;;13.89;61.95;99260.97;7000041;28;20270;-80
2022/10/05 02:06:42;;;;;;;7.77;6.20;;;;;;;13.92;62.14;99274.09;6979492;28;20214;-80
2022/10/05 02:10:08;;;;;;;8.47;5.47;;;;;;;13.83;61.91;99243.69;6978863;28;20229;-82
2022/10/05 02:13:32;;;;;;;7.07;5.87;;;;;;;13.16;62.90;99247.84;6979629;28;20297;-82
2022/10/05 02:16:54;;;;;;;6.10;5.27;;;;;;;13.67;62.17;99265.00;6979086;28;20229;-82
2022/10/05 02:20:23;;;;;;;6.23;5.67;;;;;;;13.61;61.87;99233.34;6978287;28;20583;-82
2022/10/05 02:23:46;;;;;;;6.40;5.50;;;;;;;13.85;61.20;99254.28;6978929;28;20186;-82
2022/10/05 02:27:08;;;;;;;6.67;5.67;;;;;;;13.50;61.40;99242.13;6978932;28;20289;-82
2022/10/05 02:30:31;;;;;;;7.67;5.33;;;;;;;13.43;61.82;99263.81;6978412;28;20263;-82
2022/10/05 02:34:19;;;;;;;7.07;5.73;;;;;;;13.41;61.34;99244.25;6979020;28;20295;-82
2022/10/05 02:37:53;;;;;;;8.83;5.13;;;;;;;13.50;61.70;99253.81;6978022;28;20194;-81
2022/10/05 02:41:23;;;;;;;7.03;5.47;;;;;;;13.65;60.66;99243.56;6978311;28;20190;-82
2022/10/05 02:44:50;;;;;;;11.13;6.00;;;;;;;12.99;61.75;99214.13;6978312;28;20218;-82
2022/10/05 02:48:19;;;;;;;13.43;5.87;;;;;;;13.32;61.94;99225.72;6977611;28;20359;-82
2022/10/05 02:51:45;;;;;;;8.17;6.27;;;;;;;13.23;63.19;99227.81;6977839;28;20288;-82
2022/10/05 02:55:14;;;;;;;6.50;5.90;;;;;;;13.43;62.29;99238.59;6977161;28;20277;-82
2022/10/05 02:58:40;;;;;;;7.33;6.10;;;;;;;13.31;62.58;99232.19;6977879;28;20225;-82
2022/10/05 03:02:08;;;;;;;6.63;5.90;;;;;;;13.30;61.87;99231.38;6978388;28;20724;-82
2022/10/05 03:05:32;;;;;;;9.73;5.80;;;;;;;13.61;61.14;99227.91;6977623;28;20654;-82
2022/10/05 03:08:59;;;;;;;13.73;6.40;;;;;;;13.06;61.83;99242.03;6981525;28;20222;-82
2022/10/05 03:12:37;;;;;;;6.17;5.57;;;;;;;12.92;64.03;99253.88;6975845;28;20354;-82
2022/10/05 03:16:20;;;;;;;9.43;6.77;;;;;;;13.57;61.91;99259.22;6977140;28;20218;-82
2022/10/05 03:20:02;;;;;;;7.83;5.80;;;;;;;13.74;61.08;99255.81;6976891;28;20368;-82
2022/10/05 03:23:33;;;;;;;7.07;6.10;;;;;;;13.03;61.88;99255.97;6977318;28;20195;-82
2022/10/05 03:27:01;;;;;;;6.27;5.70;;;;;;;12.91;62.22;99254.91;6977449;28;20337;-82
2022/10/05 03:30:25;;;;;;;7.10;6.33;;;;;;;13.25;62.27;99243.84;6976545;28;20249;-82
2022/10/05 03:33:48;;;;;;;7.30;6.03;;;;;;;13.27;61.89;99239.91;6976917;28;20618;-83
2022/10/05 03:37:14;;;;;;;6.87;6.17;;;;;;;13.23;61.61;99240.53;6976743;28;20228;-82
2022/10/05 03:40:40;;;;;;;6.83;6.17;;;;;;;13.30;62.17;99233.22;6976920;28;20230;-82
2022/10/05 03:44:24;;;;;;;7.00;5.97;;;;;;;12.68;62.29;99214.75;6976772;28;20660;-82
2022/10/05 03:47:52;;;;;;;8.37;7.50;;;;;;;13.02;62.06;99224.53;6972219;28;20273;-82
2022/10/05 03:51:19;;;;;;;8.70;6.33;;;;;;;13.04;61.81;99208.94;6976676;28;20670;-82
2022/10/05 03:54:44;;;;;;;6.93;5.67;;;;;;;12.77;62.69;99218.06;6975705;28;20191;-85
2022/10/05 03:58:10;;;;;;;7.03;5.97;;;;;;;12.62;63.31;99215.56;6975923;28;20253;-85
2022/10/05 04:01:37;;;;;;;8.43;5.90;;;;;;;12.86;62.67;99209.53;6976433;28;20190;-82
2022/10/05 04:05:03;;;;;;;8.33;6.10;;;;;;;12.82;62.94;99192.06;6975109;28;20295;-82
2022/10/05 04:08:32;;;;;;;9.33;6.53;;;;;;;12.95;62.75;99202.03;6975462;28;20710;-82
2022/10/05 04:12:01;;;;;;;6.90;6.20;;;;;;;12.48;62.39;99129.22;6975371;28;20274;-82
2022/10/05 04:15:29;;;;;;;10.43;5.93;;;;;;;13.01;62.23;99185.81;6975920;28;20261;-82
2022/10/05 04:18:56;;;;;;;8.73;6.77;;;;;;;12.96;62.46;99187.47;6975247;28;20271;-81
2022/10/05 04:22:22;;;;;;;6.40;5.80;;;;;;;12.98;61.92;99197.03;6988635;28;20247;-82
2022/10/05 04:25:47;;;;;;;8.20;6.20;;;;;;;13.17;61.82;99192.66;6983468;28;20308;-82
2022/10/05 04:29:16;;;;;;;6.67;5.50;;;;;;;13.46;61.36;99197.56;6996021;28;20729;-82
2022/10/05 04:32:42;;;;;;;6.67;5.77;;;;;;;13.42;61.01;99193.59;6992477;28;20210;-82
2022/10/05 04:36:22;;;;;;;6.77;6.07;;;;;;;13.07;60.95;99203.91;7003246;28;20289;-85
2022/10/05 04:39:51;;;;;;;7.07;5.80;;;;;;;13.14;61.12;99171.41;6999652;28;20230;-80
2022/10/05 04:43:15;;;;;;;6.53;5.93;;;;;;;13.57;61.48;99195.00;6982944;28;20264;-82
2022/10/05 04:46:48;;;;;;;7.10;5.47;;;;;;;13.50;60.94;99190.66;7003512;28;20701;-80
2022/10/05 04:50:17;;;;;;;7.43;6.27;;;;;;;13.35;60.79;99180.09;7001964;28;20260;-80
2022/10/05 04:53:44;;;;;;;7.20;5.90;;;;;;;13.29;60.55;99213.44;7001384;28;20338;-81
2022/10/05 04:57:11;;;;;;;6.40;5.80;;;;;;;13.05;61.69;99208.69;7001006;28;20244;-81
2022/10/05 05:00:40;;;;;;;8.17;5.90;;;;;;;13.27;61.11;99214.72;7000399;28;20305;-83
2022/10/05 05:04:13;;;;;;;8.93;5.67;;;;;;;13.21;60.96;99221.78;7001029;28;20303;-83
2022/10/05 05:07:41;;;;;;;6.27;5.67;;;;;;;13.05;61.91;99205.97;6998261;28;20285;-83
2022/10/05 05:11:10;;;;;;;7.57;5.90;;;;;;;12.75;61.68;99218.28;6982385;28;20230;-83
2022/10/05 05:14:42;;;;;;;7.30;6.60;;;;;;;13.03;61.89;99228.88;6984251;28;20627;-83
2022/10/05 05:18:31;;;;;;;7.10;5.60;;;;;;;12.42;62.62;99219.31;6977541;28;20226;-83
2022/10/05 05:21:59;;;;;;;7.07;6.37;;;;;;;12.97;62.00;99237.84;6978630;28;20253;-83
2022/10/05 05:25:36;;;;;;;9.50;6.17;;;;;;;12.67;62.21;99245.53;6985475;28;20240;-83
2022/10/05 05:29:05;;;;;;;11.67;6.40;;;;;;;13.02;61.73;99249.72;7010289;28;20371;-83
2022/10/05 05:32:37;;;;;;;9.13;5.97;;;;;;;13.17;61.30;99246.78;7011459;28;20201;-83
2022/10/05 05:36:19;;;;;;;6.80;6.00;;;;;;;13.28;60.99;99259.69;7010667;28;20204;-83
2022/10/05 05:39:46;;;;;;;7.00;6.30;;;;;;;13.36;60.80;99251.34;7010343;28;20856;-83
2022/10/05 05:43:18;;;;;;;7.80;6.47;;;;;;;12.94;60.93;99235.53;7011300;28;20239;-84
2022/10/05 05:46:41;;;;;;;8.13;6.67;;;;;;;13.21;61.16;99265.09;7011570;28;20250;-83
2022/10/05 05:50:21;;;;;;;9.60;6.67;;;;;;;13.18;61.04;99243.88;7011444;28;20316;-84
2022/10/05 05:53:44;;;;;;;7.53;6.67;;;;;;;13.23;61.44;99265.72;7012333;28;20273;-83
2022/10/05 05:57:11;;;;;;;7.83;6.37;;;;;;;13.32;61.38;99239.25;7012188;28;20232;-82
2022/10/05 06:00:38;;;;;;;8.97;6.60;;;;;;;13.45;61.04;99279.88;7012577;28;20355;-84
2022/10/05 06:04:01;;;;;;;8.03;7.23;;;;;;;13.45;60.68;99269.84;7013347;28;20225;-84
2022/10/05 06:07:28;;;;;;;7.73;6.50;;;;;;;13.39;60.95;99275.31;7016104;28;20248;-83
2022/10/05 06:10:51;;;;;;;9.00;7.50;;;;;;;12.76;62.34;99274.03;7008415;28;20206;-84
2022/10/05 06:14:17;;;;;;;12.73;7.93;;;;;;;12.96;62.07;99260.56;7008417;28;20266;-84
2022/10/05 06:17:42;;;;;;;8.60;7.73;;;;;;;13.33;61.41;99279.66;7008124;28;20366;-84
2022/10/05 06:21:10;;;;;;;7.80;7.00;;;;;;;13.10;61.72;99281.19;7013133;28;20351;-83
2022/10/05 06:24:36;;;;;;;8.73;7.53;;;;;;;13.11;61.68;99278.22;7007380;28;20630;-84
2022/10/05 06:28:03;;;;;;;14.77;7.03;;;;;;;13.39;61.46;99305.09;7007027;28;20351;-84
2022/10/05 06:31:35;;;;;;;8.80;7.37;;;;;;;13.23;61.67;99302.81;7007219;28;20669;-84
2022/10/05 06:35:04;;;;;;;10.00;8.13;;;;;;;13.56;61.63;99300.88;7006399;28;20572;-84
2022/10/05 06:38:42;;;;;;;8.67;7.43;;;;;;;14.13;61.61;99314.44;7004940;28;20693;-84
2022/10/05 06:42:23;;;;;;;8.47;7.57;;;;;;;14.30;61.50;99311.06;7005734;28;20215;-84
2022/10/05 06:45:54;;;;;;;12.13;8.40;;;;;;;14.90;59.23;99315.06;7005548;28;20224;-82
2022/10/05 06:49:18;;;;;;;11.57;8.50;;;;;;;15.12;58.06;99275.63;7005591;28;20221;-82
2022/10/05 06:52:51;;;;;;;10.43;7.70;;;;;;;15.78;56.89;99309.25;7006021;28;20213;-82
2022/10/05 06:56:17;;;;;;;13.57;10.10;;;;;;;16.10;55.62;99300.72;7004818;28;20203;-83
2022/10/05 06:59:46;;;;;;;10.80;9.23;;;;;;;16.50;54.99;99309.22;7004813;28;20709;-82
2022/10/05 07:03:16;;;;;;;9.23;6.87;;;;;;;16.13;55.04;99291.25;7006769;28;20297;-82
2022/10/05 07:06:43;;;;;;;9.47;7.50;;;;;;;17.03;53.76;99312.81;7006111;28;20377;-84
2022/10/05 07:10:16;;;;;;;11.20;6.93;;;;;;;16.62;55.04;99310.09;7007608;28;20222;-82
2022/10/05 07:13:59;;;;;;;8.43;6.43;;;;;;;16.91;54.81;99298.34;7006650;28;20203;-83
2022/10/05 07:17:32;;;;;;;8.50;6.13;;;;;;;17.56;53.87;99306.25;7006447;28;20287;-83
2022/10/05 07:20:59;;;;;;;6.93;4.87;;;;;;;17.32;53.77;99295.56;7009704;28;20206;-83
2022/10/05 07:24:28;;;;;;;4.30;3.90;;;;;;;16.72;55.31;99313.94;7006861;28;20279;-83
2022/10/05 07:27:53;;;;;;;10.73;5.73;;;;;;;17.60;54.32;99291.09;6998591;28;20240;-82
2022/10/05 07:31:20;;;;;;;5.40;4.20;;;;;;;18.05;53.88;99307.63;6991906;28;20623;-82
2022/10/05 07:34:50;;;;;;;7.23;4.90;;;;;;;18.80;51.82;99310.00;6991947;28;20288;-82
2022/10/05 07:38:13;;;;;;;5.77;5.07;;;;;;;19.10;50.76;99316.00;6999469;28;20221;-82
2022/10/05 07:41:38;;;;;;;6.53;5.10;;;;;;;19.26;50.04;99293.34;6999770;28;20685;-82
2022/10/05 07:45:09;;;;;;;7.27;4.80;;;;;;;19.21;50.04;99301.47;6983700;28;20564;-82
2022/10/05 07:48:49;;;;;;;6.00;5.40;;;;;;;19.21;50.24;99326.06;6987122;28;20358;-82
2022/10/05 07:52:15;;;;;;;6.60;6.00;;;;;;;19.16;49.83;99323.22;6996651;28;20278;-82
2022/10/05 07:55:43;;;;;;;6.90;6.20;;;;;;;18.80;50.93;99293.59;6988110;28;20250;-82
2022/10/05 07:59:06;;;;;;;5.87;4.70;;;;;;;18.96;51.50;99328.34;7010015;28;20278;-82
2022/10/05 08:02:32;;;;;;;5.97;4.90;;;;;;;19.32;49.85;99327.06;7004160;28;20206;-82
2022/10/05 08:05:54;;;;;;;5.13;4.63;;;;;;;19.35;50.97;99329.31;7003498;28;20233;-82
2022/10/05 08:09:36;;;;;;;4.87;4.40;;;;;;;19.47;51.34;99335.53;7004083;28;20264;-82
2022/10/05 08:13:06;;;;;;;8.77;4.40;;;;;;;19.80;50.02;99336.31;7004156;28;20336;-82
2022/10/05 08:16:31;;;;;;;6.20;4.23;;;;;;;19.89;49.34;99325.75;7004664;28;20255;-82
2022/10/05 08:19:56;;;;;;;8.33;4.70;;;;;;;20.31;49.15;99314.06;7003693;28;20372;-81
2022/10/05 08:23:23;;;;;;;7.90;4.97;;;;;;;20.42;48.76;99325.94;7004471;28;20267;-82
2022/10/05 08:26:50;;;;;;;6.40;5.23;;;;;;;20.60;48.33;99325.63;6976039;28;20229;-82
2022/10/05 08:30:13;;;;;;;6.23;4.80;;;;;;;20.60;49.17;99320.97;6976273;28;20257;-82
2022/10/05 08:33:40;;;;;;;5.57;4.70;;;;;;;20.90;48.88;99323.22;6977503;28;20243;-82
2022/10/05 08:37:04;;;;;;;5.40;4.40;;;;;;;21.39;45.97;99278.97;6995324;28;20296;-82
2022/10/05 08:40:50;;;;;;;5.30;4.27;;;;;;;21.59;45.51;99317.56;7003625;28;20686;-82
2022/10/05 08:48:13;;;;;;;7.90;4.80;;;;;;;21.56;44.25;99233.00;7028803;27;20638;-79
2022/10/05 08:51:58;;;;;;;10.47;5.53;;;;;;;22.47;45.80;99295.56;7029162;28;20204;-79
2022/10/05 08:55:41;;;;;;;6.03;4.73;;;;;;;22.35;44.70;99209.75;7024779;28;20206;-78
2022/10/05 08:59:14;;;;;;;4.40;4.00;;;;;;;23.62;42.86;99301.22;7028783;28;20584;-79
2022/10/05 09:02:51;;;;;;;9.20;4.30;;;;;;;23.02;43.07;99216.72;7026466;28;20224;-79
2022/10/05 09:06:43;;;;;;;3.97;3.57;;;;;;;23.79;42.37;99286.03;7029281;28;20589;-79
2022/10/05 09:10:39;;;;;;;3.87;3.47;;;;;;;23.82;42.18;99282.75;7029106;28;20213;-79
2022/10/05 09:14:24;;;;;;;7.23;6.40;;;;;;;23.21;44.39;99281.16;7015070;28;20620;-79
2022/10/05 09:18:09;;;;;;;9.17;8.33;;;;;;;23.28;43.96;99220.34;6998355;28;20218;-79
2022/10/05 09:21:50;;;;;;;3.47;3.17;;;;;;;23.88;42.16;99178.91;7001147;28;20216;-79
2022/10/05 09:25:22;;;;;;;5.07;3.17;;;;;;;24.43;41.72;99281.44;7002069;28;20276;-79
2022/10/05 09:28:53;;;;;;;3.87;3.37;;;;;;;23.61;43.86;99182.00;7001981;28;20679;-79
2022/10/05 09:32:35;;;;;;;3.83;3.20;;;;;;;22.44;45.56;99202.66;7001198;28;20222;-82
2022/10/05 09:36:19;;;;;;;6.23;3.87;;;;;;;23.10;44.37;99205.19;6993723;28;20235;-79
2022/10/05 09:40:16;;;;;;;14.40;7.60;;;;;;;23.78;43.83;99209.22;6985087;28;20215;-80
2022/10/05 09:44:12;;;;;;;4.27;3.17;;;;;;;25.17;41.87;99256.44;6979584;28;20282;-81
2022/10/05 09:47:58;;;;;;;3.63;3.20;;;;;;;24.63;43.16;99262.09;6972478;28;20231;-80
2022/10/05 09:52:06;;;;;;;4.60;3.13;;;;;;;24.58;42.27;99250.25;6974849;28;20212;-88
2022/10/05 09:56:08;;;;;;;3.23;2.93;;;;;;;25.09;40.31;99160.47;6989647;28;20920;-80
2022/10/05 09:59:58;;;;;;;4.30;2.67;;;;;;;25.45;40.69;99245.47;6952986;28;20225;-79
2022/10/05 10:03:42;;;;;;;3.83;2.97;;;;;;;25.51;40.51;99221.38;6950223;28;20273;-80
2022/10/05 10:07:47;;;;;;;5.30;4.90;;;;;;;24.93;40.65;99107.38;6955946;28;20234;-88
2022/10/05 10:11:31;;;;;;;2.80;2.60;;;;;;;25.50;39.08;99076.97;6955763;28;20229;-85
2022/10/05 10:15:16;;;;;;;3.57;2.40;;;;;;;26.01;39.73;99223.63;7004092;28;20236;-81
2022/10/05 10:19:00;;;;;;;3.93;2.90;;;;;;;25.84;40.42;99214.97;6980395;28;20229;-80
2022/10/05 10:22:57;;;;;;;6.43;2.60;;;;;;;24.98;40.78;99206.66;6970626;28;20206;-79
2022/10/05 10:26:43;;;;;;;2.93;2.10;;;;;;;25.15;39.70;99145.53;6941292;28;20255;-80
2022/10/05 10:30:46;;;;;;;3.30;2.23;;;;;;;25.98;39.25;99144.91;6973920;28;20201;-80
2022/10/05 10:34:56;;;;;;;3.27;2.80;;;;;;;26.62;39.06;99202.34;6978343;28;20202;-79
2022/10/05 10:38:35;;;;;;;3.70;2.67;;;;;;;26.24;39.12;99142.63;6979704;28;20223;-79
2022/10/05 10:42:27;;;;;;;2.60;2.40;;;;;;;25.95;39.12;99142.72;6982587;28;20200;-80
2022/10/05 10:45:56;;;;;;;3.13;2.37;;;;;;;25.49;39.77;99129.75;6978510;28;20226;-80
2022/10/05 10:49:31;;;;;;;4.93;2.93;;;;;;;26.91;38.70;99137.44;6979164;28;20232;-80
2022/10/05 10:53:16;;;;;;;2.70;2.50;;;;;;;27.19;37.91;99194.53;6965193;28;20206;-80
2022/10/05 10:56:58;;;;;;;2.67;2.47;;;;;;;25.86;39.46;99165.75;6967116;28;20219;-80
2022/10/05 11:00:41;;;;;;;3.40;3.00;;;;;;;27.03;38.47;99179.28;6981881;28;20630;-79
2022/10/05 11:04:29;;;;;;;3.60;2.73;;;;;;;27.96;36.94;99165.91;6981907;28;20211;-79
2022/10/05 11:08:24;;;;;;;2.37;2.17;;;;;;;27.44;36.12;99179.41;6975089;28;20226;-79
2022/10/05 11:12:07;;;;;;;2.40;2.20;;;;;;;27.75;35.15;99164.66;6921047;28;20569;-79
2022/10/05 11:15:59;;;;;;;4.17;2.20;;;;;;;28.88;35.33;99155.22;6959392;28;20234;-80
2022/10/05 11:20:05;;;;;;;3.37;1.80;;;;;;;27.57;35.44;99037.31;6966794;28;20291;-79
2022/10/05 11:23:42;;;;;;;2.97;2.17;;;;;;;28.63;34.27;99151.13;6970142;28;20288;-79
2022/10/05 11:27:49;;;;;;;2.13;1.93;;;;;;;28.71;34.56;99100.41;6979446;28;20233;-79
2022/10/05 11:31:44;;;;;;;2.13;1.80;;;;;;;27.88;34.76;99071.56;6932873;28;20206;-80
2022/10/05 11:35:29;;;;;;;1.80;1.70;;;;;;;29.12;33.93;99134.34;6970951;28;20212;-80
2022/10/05 11:39:11;;;;;;;3.20;1.90;;;;;;;28.81;33.86;99083.50;6967556;28;20220;-80
2022/10/05 11:42:51;;;;;;;1.80;1.70;;;;;;;28.82;34.03;99090.69;6966261;28;20587;-80
2022/10/05 11:46:18;;;;;;;2.20;1.90;;;;;;;28.97;34.16;99118.09;6956465;28;20230;-80
2022/10/05 11:49:44;;;;;;;2.20;2.00;;;;;;;28.29;34.78;99100.84;6961632;28;20196;-80
2022/10/05 11:53:14;;;;;;;2.23;2.00;;;;;;;27.82;35.07;99039.56;6969056;28;20203;-80
2022/10/05 11:56:39;;;;;;;2.43;1.80;;;;;;;27.85;35.33;99056.38;6966533;28;20203;-80
2022/10/05 12:00:12;;;;;;;3.53;2.00;;;;;;;28.81;34.78;99104.88;6972093;28;20655;-80
2022/10/05 12:03:43;;;;;;;2.13;2.00;;;;;;;28.81;34.29;99016.03;6977342;28;20294;-80
2022/10/05 12:07:15;;;;;;;2.07;1.90;;;;;;;29.20;34.41;99096.66;6972212;28;20291;-80
2022/10/05 12:10:42;;;;;;;1.80;1.70;;;;;;;28.36;35.23;99025.53;6979944;28;20251;-80
2022/10/05 12:14:08;;;;;;;2.20;2.00;;;;;;;29.56;34.51;99102.91;6980732;28;20232;-80
2022/10/05 12:17:37;;;;;;;3.70;1.90;;;;;;;29.20;34.94;99061.34;6979040;28;20211;-80
2022/10/05 12:21:02;;;;;;;2.30;2.10;;;;;;;29.13;34.33;99099.88;6979138;28;20211;-80
2022/10/05 12:24:42;;;;;;;2.30;1.97;;;;;;;29.62;34.16;99030.19;6978772;28;20205;-80
2022/10/05 12:28:05;;;;;;;4.23;2.13;;;;;;;29.71;33.57;99072.69;6979235;28;20305;-80
2022/10/05 12:31:35;;;;;;;2.10;1.90;;;;;;;29.38;33.78;99038.06;6966358;28;20227;-80
2022/10/05 12:35:02;;;;;;;2.27;2.00;;;;;;;29.83;34.08;99066.53;6967430;28;20201;-80
2022/10/05 12:38:27;;;;;;;3.67;2.27;;;;;;;30.11;33.57;99067.91;6969098;28;20664;-80
2022/10/05 12:42:03;;;;;;;3.70;1.90;;;;;;;28.90;35.35;99030.81;6971443;28;20204;-80
2022/10/05 12:45:31;;;;;;;4.10;2.00;;;;;;;28.74;35.67;99063.69;6980450;28;20214;-80
2022/10/05 12:49:20;;;;;;;2.47;1.90;;;;;;;29.42;35.08;99066.03;6979689;28;20197;-80
2022/10/05 12:52:55;;;;;;;2.23;2.03;;;;;;;29.11;35.46;99070.78;6980626;28;20197;-80
2022/10/05 12:56:24;;;;;;;3.90;2.13;;;;;;;28.99;35.15;99006.69;6980137;28;20203;-80
2022/10/05 12:59:51;;;;;;;4.20;2.17;;;;;;;29.35;33.99;99010.94;6980990;28;20763;-81
2022/10/05 13:03:17;;;;;;;2.97;1.90;;;;;;;29.95;34.73;99061.16;6980674;28;20204;-80
2022/10/05 13:06:43;;;;;;;2.00;1.80;;;;;;;30.03;33.57;99010.28;6979211;28;20214;-79
2022/10/05 13:10:17;;;;;;;4.13;1.87;;;;;;;29.77;33.69;98996.34;6980235;28;20197;-81
2022/10/05 13:13:46;;;;;;;4.10;1.63;;;;;;;29.02;34.67;99031.06;6979848;28;20226;-80
2022/10/05 13:17:15;;;;;;;2.67;1.43;;;;;;;28.96;34.55;99055.34;6979827;28;20229;-80
2022/10/05 13:20:42;;;;;;;8.27;2.10;;;;;;;29.05;33.85;99000.69;6979791;28;20643;-80
2022/10/05 13:24:09;;;;;;;3.43;2.17;;;;;;;29.24;33.58;99004.03;6980102;28;20223;-80
2022/10/05 13:27:32;;;;;;;1.80;1.53;;;;;;;29.25;34.22;99022.31;6978538;28;20234;-81
2022/10/05 13:31:01;;;;;;;3.73;1.83;;;;;;;29.13;33.36;98977.69;6981442;28;20236;-79
2022/10/05 13:34:34;;;;;;;3.43;1.93;;;;;;;29.65;32.80;98982.25;6984875;28;20252;-80
2022/10/05 13:38:03;;;;;;;3.70;2.10;;;;;;;29.96;32.70;99041.34;6984702;28;20206;-80
2022/10/05 13:41:45;;;;;;;3.50;2.00;;;;;;;29.15;32.17;98963.47;6985197;28;20600;-80
2022/10/05 13:45:13;;;;;;;2.23;1.43;;;;;;;27.77;29.38;98964.84;6985427;28;20221;-78
2022/10/05 13:48:47;;;;;;;2.23;1.30;;;;;;;28.88;29.05;99033.91;6983410;28;20215;-78
2022/10/05 13:52:21;;;;;;;1.63;1.53;;;;;;;29.55;29.07;98981.75;6960895;28;20213;-79
2022/10/05 13:55:46;;;;;;;1.17;1.03;;;;;;;29.14;25.63;98982.09;6968461;28;20229;-78
2022/10/05 13:59:14;;;;;;;2.13;0.97;;;;;;;29.46;25.28;99034.50;6984893;28;20198;-79
2022/10/05 14:02:39;;;;;;;0.60;0.60;;;;;;;28.93;25.17;98974.63;6985590;28;20191;-79
2022/10/05 14:06:03;;;;;;;1.13;0.90;;;;;;;29.37;25.07;99024.50;6983155;28;20236;-79
2022/10/05 14:09:31;;;;;;;0.93;0.93;;;;;;;29.09;24.43;98960.03;6984218;28;20207;-79
2022/10/05 14:12:54;;;;;;;0.80;0.80;;;;;;;29.38;25.63;99021.38;6983822;28;20222;-79
2022/10/05 14:16:21;;;;;;;2.07;0.90;;;;;;;28.90;25.82;98983.63;6984013;28;20202;-79
2022/10/05 14:19:45;;;;;;;0.83;0.73;;;;;;;29.63;25.98;98980.94;6983714;28;20210;-79
2022/10/05 14:23:14;;;;;;;1.23;0.87;;;;;;;30.22;25.63;98994.94;6983453;28;20250;-78
2022/10/05 14:26:39;;;;;;;1.33;0.90;;;;;;;30.03;25.56;98963.00;6984156;28;20233;-78
2022/10/05 14:30:03;;;;;;;0.73;0.73;;;;;;;28.74;26.45;98972.09;6963605;28;20228;-79
2022/10/05 14:33:26;;;;;;;2.33;1.20;;;;;;;29.41;26.71;98967.97;6966422;28;20230;-79
2022/10/05 14:36:55;;;;;;;1.23;1.20;;;;;;;29.14;27.69;98957.09;6983485;28;20201;-79
2022/10/05 14:40:30;;;;;;;1.87;1.47;;;;;;;29.40;26.43;98952.44;6981908;28;20253;-79
2022/10/05 14:43:58;;;;;;;1.83;1.20;;;;;;;29.76;26.86;99027.25;6964811;28;20692;-79
2022/10/05 14:47:23;;;;;;;1.83;1.30;;;;;;;29.49;28.01;99021.94;6970079;28;20228;-79
2022/10/05 14:50:54;;;;;;;1.30;1.20;;;;;;;28.68;27.76;98967.00;6976057;28;20208;-79
2022/10/05 14:54:32;;;;;;;2.43;1.33;;;;;;;28.93;28.41;99017.09;6966323;28;20221;-79
2022/10/05 14:58:03;;;;;;;2.40;1.50;;;;;;;28.95;27.97;98962.09;6968765;28;20649;-79
2022/10/05 15:01:29;;;;;;;3.53;1.93;;;;;;;28.90;27.36;98955.84;6977604;28;20204;-79
2022/10/05 15:04:55;;;;;;;1.60;1.50;;;;;;;28.95;27.69;98961.25;6983718;28;20221;-78
2022/10/05 15:08:26;;;;;;;2.57;1.50;;;;;;;29.27;27.92;99020.06;6982503;28;20665;-79
2022/10/05 15:11:51;;;;;;;4.63;1.80;;;;;;;28.68;28.38;98950.34;6982384;28;20215;-79
2022/10/05 15:15:25;;;;;;;3.67;1.40;;;;;;;28.85;29.18;99017.84;6982998;28;20203;-79
2022/10/05 15:18:55;;;;;;;1.47;1.37;;;;;;;29.06;28.58;99005.09;6981863;28;20196;-78
2022/10/05 15:22:28;;;;;;;2.60;1.57;;;;;;;28.54;28.99;98960.72;6972920;28;20253;-78
2022/10/05 15:25:54;;;;;;;3.07;1.97;;;;;;;28.90;29.62;99023.28;6984140;28;20209;-78
2022/10/05 15:29:45;;;;;;;10.77;8.63;;;;;;;28.74;34.10;98955.47;6980169;28;20272;-78
2022/10/05 15:33:13;;;;;;;4.53;4.13;;;;;;;28.61;36.14;99011.03;6957008;28;20329;-79
2022/10/05 15:36:41;;;;;;;4.80;2.90;;;;;;;27.89;37.05;98927.13;6982317;28;20201;-86
2022/10/05 15:40:07;;;;;;;5.17;2.90;;;;;;;28.49;37.73;99016.34;6958563;28;20199;-83
2022/10/05 15:43:37;;;;;;;3.63;2.90;;;;;;;28.31;37.83;98962.66;6974656;28;20580;-85
2022/10/05 15:47:04;;;;;;;5.80;2.50;;;;;;;29.06;36.36;99021.75;6981489;28;20245;-82
2022/10/05 15:50:27;;;;;;;3.07;1.80;;;;;;;28.66;35.99;98991.50;6976029;28;20198;-80
2022/10/05 15:54:39;;;;;;;2.80;1.90;;;;;;;28.18;36.44;98955.25;6954139;28;20207;-82
2022/10/05 15:57:44;;;;;;;2.03;1.83;;;;;;;27.73;36.61;98963.81;6953193;28;20203;-84
2022/10/05 16:01:10;;;;;;;2.40;2.00;;;;;;;28.18;37.05;99029.31;6954852;28;20282;-82
2022/10/05 16:04:40;;;;;;;3.33;1.90;;;;;;;27.51;38.42;99035.78;6954726;28;20218;-83
2022/10/05 16:11:59;;;;;;;7.17;2.00;;;;;;;26.90;39.11;98963.38;6953909;28;20195;-82
2022/10/05 16:15:28;;;;;;;3.10;1.40;;;;;;;27.07;34.70;99052.97;6977608;28;20191;-81
2022/10/05 16:18:58;;;;;;;5.33;2.30;;;;;;;26.56;35.38;99049.50;6981074;28;20209;-81
2022/10/05 16:22:25;;;;;;;4.83;2.80;;;;;;;26.20;36.59;99033.75;6981052;28;20682;-80
2022/10/05 16:25:54;;;;;;;3.87;2.23;;;;;;;25.70;37.87;99056.53;6981030;28;20197;-80
2022/10/05 16:29:22;;;;;;;8.80;3.80;;;;;;;25.15;37.71;99002.00;6981049;28;20217;-78
2022/10/05 16:32:49;;;;;;;2.67;2.43;;;;;;;25.14;37.66;99008.66;6981217;28;20231;-82
2022/10/05 16:36:18;;;;;;;4.40;4.00;;;;;;;24.52;40.12;99008.72;6980611;28;20689;-82
2022/10/05 16:40:02;;;;;;;6.70;2.50;;;;;;;24.61;41.68;99078.72;6980176;28;20339;-81
2022/10/05 16:43:30;;;;;;;3.20;2.00;;;;;;;23.73;43.76;99086.13;6980465;28;20217;-82